sensor_id;sensor_type;location;lat;lon;timestamp;P1;durP1;ratioP1;P2;durP2;ratioP2
74523;SDS011;63074;44.696;10.358;2023-05-20T00:00:44;8.57;;;6.47;;
74523;SDS011;63074;44.696;10.358;2023-05-20T00:03:13;10.00;;;7.32;;
74523;SDS011;63074;44.696;10.358;2023-05-20T00:05:39;11.23;;;7.32;;
74523;SDS011;63074;44.696;10.358;2023-05-20T00:08:06;11.77;;;7.70;;
74523;SDS011;63074;44.696;10.358;2023-05-20T00:10:33;12.90;;;8.52;;
74523;SDS011;63074;44.696;10.358;2023-05-20T00:13:00;12.07;;;7.80;;
74523;SDS011;63074;44.696;10.358;2023-05-20T00:15:27;17.08;;;9.38;;
74523;SDS011;63074;44.696;10.358;2023-05-20T00:17:53;11.48;;;8.55;;
74523;SDS011;63074;44.696;10.358;2023-05-20T00:20:20;12.85;;;8.85;;
74523;SDS011;63074;44.696;10.358;2023-05-20T00:22:46;16.95;;;8.77;;
74523;SDS011;63074;44.696;10.358;2023-05-20T00:25:12;12.55;;;7.93;;
74523;SDS011;63074;44.696;10.358;2023-05-20T00:27:39;15.13;;;9.43;;
74523;SDS011;63074;44.696;10.358;2023-05-20T00:30:05;14.23;;;8.10;;
74523;SDS011;63074;44.696;10.358;2023-05-20T00:32:32;14.75;;;9.57;;
74523;SDS011;63074;44.696;10.358;2023-05-20T00:34:59;13.38;;;8.10;;
74523;SDS011;63074;44.696;10.358;2023-05-20T00:37:26;12.18;;;8.05;;
74523;SDS011;63074;44.696;10.358;2023-05-20T00:39:52;14.55;;;9.75;;
74523;SDS011;63074;44.696;10.358;2023-05-20T00:42:19;16.05;;;8.52;;
74523;SDS011;63074;44.696;10.358;2023-05-20T00:44:46;13.45;;;8.07;;
74523;SDS011;63074;44.696;10.358;2023-05-20T00:47:13;13.32;;;7.68;;
74523;SDS011;63074;44.696;10.358;2023-05-20T00:49:43;12.43;;;7.90;;
74523;SDS011;63074;44.696;10.358;2023-05-20T00:52:10;13.18;;;8.05;;
74523;SDS011;63074;44.696;10.358;2023-05-20T00:54:39;13.45;;;8.93;;
74523;SDS011;63074;44.696;10.358;2023-05-20T00:57:06;13.50;;;7.90;;
74523;SDS011;63074;44.696;10.358;2023-05-20T00:59:34;11.93;;;6.97;;
74523;SDS011;63074;44.696;10.358;2023-05-20T01:02:02;13.52;;;8.45;;
74523;SDS011;63074;44.696;10.358;2023-05-20T01:04:29;11.52;;;7.97;;
74523;SDS011;63074;44.696;10.358;2023-05-20T01:06:56;12.48;;;7.95;;
74523;SDS011;63074;44.696;10.358;2023-05-20T01:09:27;15.48;;;7.95;;
74523;SDS011;63074;44.696;10.358;2023-05-20T01:12:05;12.60;;;8.20;;
74523;SDS011;63074;44.696;10.358;2023-05-20T01:14:57;13.05;;;7.50;;
74523;SDS011;63074;44.696;10.358;2023-05-20T01:17:31;12.45;;;7.28;;
74523;SDS011;63074;44.696;10.358;2023-05-20T01:20:01;13.05;;;7.85;;
74523;SDS011;63074;44.696;10.358;2023-05-20T01:22:31;11.88;;;7.40;;
74523;SDS011;63074;44.696;10.358;2023-05-20T01:24:57;13.70;;;7.25;;
74523;SDS011;63074;44.696;10.358;2023-05-20T01:27:24;11.93;;;7.28;;
74523;SDS011;63074;44.696;10.358;2023-05-20T01:29:50;16.48;;;8.25;;
74523;SDS011;63074;44.696;10.358;2023-05-20T01:32:29;13.38;;;6.97;;
74523;SDS011;63074;44.696;10.358;2023-05-20T01:34:58;13.48;;;7.80;;
74523;SDS011;63074;44.696;10.358;2023-05-20T01:37:26;13.65;;;7.75;;
74523;SDS011;63074;44.696;10.358;2023-05-20T01:39:53;11.48;;;7.15;;
74523;SDS011;63074;44.696;10.358;2023-05-20T01:42:20;11.55;;;7.90;;
74523;SDS011;63074;44.696;10.358;2023-05-20T01:47:16;12.65;;;8.02;;
74523;SDS011;63074;44.696;10.358;2023-05-20T01:49:42;12.45;;;7.25;;
74523;SDS011;63074;44.696;10.358;2023-05-20T01:52:10;11.73;;;7.82;;
74523;SDS011;63074;44.696;10.358;2023-05-20T01:54:36;11.82;;;7.00;;
74523;SDS011;63074;44.696;10.358;2023-05-20T01:57:03;12.60;;;7.50;;
74523;SDS011;63074;44.696;10.358;2023-05-20T01:59:29;15.73;;;7.57;;
74523;SDS011;63074;44.696;10.358;2023-05-20T02:01:55;15.48;;;7.78;;
74523;SDS011;63074;44.696;10.358;2023-05-20T02:04:22;11.70;;;7.25;;
74523;SDS011;63074;44.696;10.358;2023-05-20T02:06:48;13.65;;;7.60;;
74523;SDS011;63074;44.696;10.358;2023-05-20T02:09:14;13.48;;;6.82;;
74523;SDS011;63074;44.696;10.358;2023-05-20T02:11:42;12.20;;;7.68;;
74523;SDS011;63074;44.696;10.358;2023-05-20T02:14:08;13.07;;;6.85;;
74523;SDS011;63074;44.696;10.358;2023-05-20T02:16:34;12.13;;;7.50;;
74523;SDS011;63074;44.696;10.358;2023-05-20T02:19:00;13.52;;;7.82;;
74523;SDS011;63074;44.696;10.358;2023-05-20T02:21:27;12.85;;;7.03;;
74523;SDS011;63074;44.696;10.358;2023-05-20T02:23:53;11.68;;;6.97;;
74523;SDS011;63074;44.696;10.358;2023-05-20T02:26:20;13.50;;;7.38;;
74523;SDS011;63074;44.696;10.358;2023-05-20T02:28:46;12.20;;;7.57;;
74523;SDS011;63074;44.696;10.358;2023-05-20T02:31:14;13.23;;;6.68;;
74523;SDS011;63074;44.696;10.358;2023-05-20T02:33:41;10.63;;;6.72;;
74523;SDS011;63074;44.696;10.358;2023-05-20T02:36:07;12.15;;;7.30;;
74523;SDS011;63074;44.696;10.358;2023-05-20T02:38:34;13.48;;;6.82;;
74523;SDS011;63074;44.696;10.358;2023-05-20T02:41:00;12.40;;;7.35;;
74523;SDS011;63074;44.696;10.358;2023-05-20T02:43:28;10.32;;;6.90;;
74523;SDS011;63074;44.696;10.358;2023-05-20T02:45:55;11.45;;;7.72;;
74523;SDS011;63074;44.696;10.358;2023-05-20T02:48:22;12.48;;;6.38;;
74523;SDS011;63074;44.696;10.358;2023-05-20T02:50:48;11.75;;;7.68;;
74523;SDS011;63074;44.696;10.358;2023-05-20T02:53:17;9.68;;;5.88;;
74523;SDS011;63074;44.696;10.358;2023-05-20T02:55:44;11.02;;;7.20;;
74523;SDS011;63074;44.696;10.358;2023-05-20T02:58:14;12.27;;;7.50;;
74523;SDS011;63074;44.696;10.358;2023-05-20T03:00:41;12.68;;;7.05;;
74523;SDS011;63074;44.696;10.358;2023-05-20T03:03:08;11.57;;;6.60;;
74523;SDS011;63074;44.696;10.358;2023-05-20T03:05:35;11.52;;;6.72;;
74523;SDS011;63074;44.696;10.358;2023-05-20T03:08:02;13.68;;;6.13;;
74523;SDS011;63074;44.696;10.358;2023-05-20T03:10:38;11.80;;;6.82;;
74523;SDS011;63074;44.696;10.358;2023-05-20T03:13:04;12.55;;;7.38;;
74523;SDS011;63074;44.696;10.358;2023-05-20T03:15:33;11.43;;;7.10;;
74523;SDS011;63074;44.696;10.358;2023-05-20T03:18:00;13.05;;;6.85;;
74523;SDS011;63074;44.696;10.358;2023-05-20T03:20:26;11.63;;;6.18;;
74523;SDS011;63074;44.696;10.358;2023-05-20T03:22:55;10.27;;;6.05;;
74523;SDS011;63074;44.696;10.358;2023-05-20T03:25:22;13.10;;;8.02;;
74523;SDS011;63074;44.696;10.358;2023-05-20T03:27:50;11.00;;;6.10;;
74523;SDS011;63074;44.696;10.358;2023-05-20T03:30:16;12.02;;;6.35;;
74523;SDS011;63074;44.696;10.358;2023-05-20T03:32:43;11.90;;;6.28;;
74523;SDS011;63074;44.696;10.358;2023-05-20T03:35:09;13.93;;;7.05;;
74523;SDS011;63074;44.696;10.358;2023-05-20T03:37:35;12.68;;;6.65;;
74523;SDS011;63074;44.696;10.358;2023-05-20T03:40:02;10.38;;;6.22;;
74523;SDS011;63074;44.696;10.358;2023-05-20T03:42:30;11.85;;;7.25;;
74523;SDS011;63074;44.696;10.358;2023-05-20T03:44:57;10.68;;;6.50;;
74523;SDS011;63074;44.696;10.358;2023-05-20T03:47:24;10.52;;;6.88;;
74523;SDS011;63074;44.696;10.358;2023-05-20T03:49:51;11.07;;;7.00;;
74523;SDS011;63074;44.696;10.358;2023-05-20T03:52:17;12.90;;;6.45;;
74523;SDS011;63074;44.696;10.358;2023-05-20T03:54:43;11.90;;;7.38;;
74523;SDS011;63074;44.696;10.358;2023-05-20T03:57:09;11.73;;;6.55;;
74523;SDS011;63074;44.696;10.358;2023-05-20T03:59:36;11.05;;;6.43;;
74523;SDS011;63074;44.696;10.358;2023-05-20T04:02:02;11.73;;;7.03;;
74523;SDS011;63074;44.696;10.358;2023-05-20T04:04:29;12.38;;;7.18;;
74523;SDS011;63074;44.696;10.358;2023-05-20T04:06:57;12.98;;;6.63;;
74523;SDS011;63074;44.696;10.358;2023-05-20T04:09:27;10.98;;;6.53;;
74523;SDS011;63074;44.696;10.358;2023-05-20T04:11:53;10.90;;;6.53;;
74523;SDS011;63074;44.696;10.358;2023-05-20T04:14:19;10.05;;;6.43;;
74523;SDS011;63074;44.696;10.358;2023-05-20T04:16:45;11.07;;;6.13;;
74523;SDS011;63074;44.696;10.358;2023-05-20T04:19:12;12.98;;;6.05;;
74523;SDS011;63074;44.696;10.358;2023-05-20T04:21:41;10.88;;;6.47;;
74523;SDS011;63074;44.696;10.358;2023-05-20T04:24:08;11.82;;;6.70;;
74523;SDS011;63074;44.696;10.358;2023-05-20T04:26:34;11.32;;;6.88;;
74523;SDS011;63074;44.696;10.358;2023-05-20T04:29:01;11.68;;;6.70;;
74523;SDS011;63074;44.696;10.358;2023-05-20T04:31:28;12.25;;;7.03;;
74523;SDS011;63074;44.696;10.358;2023-05-20T04:33:56;10.50;;;7.25;;
74523;SDS011;63074;44.696;10.358;2023-05-20T04:36:22;12.15;;;6.70;;
74523;SDS011;63074;44.696;10.358;2023-05-20T04:38:53;12.90;;;7.43;;
74523;SDS011;63074;44.696;10.358;2023-05-20T04:41:20;12.88;;;7.65;;
74523;SDS011;63074;44.696;10.358;2023-05-20T04:43:46;15.48;;;9.52;;
74523;SDS011;63074;44.696;10.358;2023-05-20T04:46:13;14.57;;;9.45;;
74523;SDS011;63074;44.696;10.358;2023-05-20T04:48:40;14.60;;;9.13;;
74523;SDS011;63074;44.696;10.358;2023-05-20T04:51:08;18.10;;;11.07;;
74523;SDS011;63074;44.696;10.358;2023-05-20T04:53:34;15.60;;;9.57;;
74523;SDS011;63074;44.696;10.358;2023-05-20T04:56:01;16.58;;;10.63;;
74523;SDS011;63074;44.696;10.358;2023-05-20T04:58:27;14.75;;;9.98;;
74523;SDS011;63074;44.696;10.358;2023-05-20T05:00:55;15.93;;;10.27;;
74523;SDS011;63074;44.696;10.358;2023-05-20T05:03:21;16.60;;;10.82;;
74523;SDS011;63074;44.696;10.358;2023-05-20T05:05:48;16.60;;;9.98;;
74523;SDS011;63074;44.696;10.358;2023-05-20T05:08:14;14.48;;;9.63;;
74523;SDS011;63074;44.696;10.358;2023-05-20T05:10:41;14.77;;;9.93;;
74523;SDS011;63074;44.696;10.358;2023-05-20T05:13:09;19.80;;;11.23;;
74523;SDS011;63074;44.696;10.358;2023-05-20T05:15:35;14.05;;;10.63;;
74523;SDS011;63074;44.696;10.358;2023-05-20T05:18:02;18.80;;;11.55;;
74523;SDS011;63074;44.696;10.358;2023-05-20T05:20:29;16.27;;;10.60;;
74523;SDS011;63074;44.696;10.358;2023-05-20T05:22:55;17.23;;;10.70;;
74523;SDS011;63074;44.696;10.358;2023-05-20T05:25:21;15.30;;;9.93;;
74523;SDS011;63074;44.696;10.358;2023-05-20T05:27:48;16.73;;;10.75;;
74523;SDS011;63074;44.696;10.358;2023-05-20T05:30:14;15.73;;;9.77;;
74523;SDS011;63074;44.696;10.358;2023-05-20T05:32:40;15.13;;;11.70;;
74523;SDS011;63074;44.696;10.358;2023-05-20T05:35:07;16.00;;;11.38;;
74523;SDS011;63074;44.696;10.358;2023-05-20T05:37:33;15.88;;;9.57;;
74523;SDS011;63074;44.696;10.358;2023-05-20T05:39:59;16.67;;;12.75;;
74523;SDS011;63074;44.696;10.358;2023-05-20T05:42:26;16.08;;;10.65;;
74523;SDS011;63074;44.696;10.358;2023-05-20T05:44:52;16.58;;;10.77;;
74523;SDS011;63074;44.696;10.358;2023-05-20T05:47:18;16.83;;;11.35;;
74523;SDS011;63074;44.696;10.358;2023-05-20T05:49:45;17.40;;;11.90;;
74523;SDS011;63074;44.696;10.358;2023-05-20T05:52:11;17.63;;;11.43;;
74523;SDS011;63074;44.696;10.358;2023-05-20T05:54:39;16.58;;;11.02;;
74523;SDS011;63074;44.696;10.358;2023-05-20T05:57:05;17.25;;;11.40;;
74523;SDS011;63074;44.696;10.358;2023-05-20T05:59:33;16.25;;;10.60;;
74523;SDS011;63074;44.696;10.358;2023-05-20T06:02:01;18.02;;;12.25;;
74523;SDS011;63074;44.696;10.358;2023-05-20T06:04:28;15.23;;;10.23;;
74523;SDS011;63074;44.696;10.358;2023-05-20T06:06:54;15.63;;;11.10;;
74523;SDS011;63074;44.696;10.358;2023-05-20T06:09:22;17.05;;;10.82;;
74523;SDS011;63074;44.696;10.358;2023-05-20T06:11:48;17.63;;;10.98;;
74523;SDS011;63074;44.696;10.358;2023-05-20T06:14:15;16.30;;;10.77;;
74523;SDS011;63074;44.696;10.358;2023-05-20T06:16:43;17.60;;;11.85;;
74523;SDS011;63074;44.696;10.358;2023-05-20T06:19:09;15.98;;;10.48;;
74523;SDS011;63074;44.696;10.358;2023-05-20T06:21:35;16.83;;;10.48;;
74523;SDS011;63074;44.696;10.358;2023-05-20T06:24:02;15.85;;;9.77;;
74523;SDS011;63074;44.696;10.358;2023-05-20T06:26:29;17.95;;;11.20;;
74523;SDS011;63074;44.696;10.358;2023-05-20T06:28:55;17.90;;;11.18;;
74523;SDS011;63074;44.696;10.358;2023-05-20T06:31:21;18.88;;;10.48;;
74523;SDS011;63074;44.696;10.358;2023-05-20T06:33:50;18.23;;;10.45;;
74523;SDS011;63074;44.696;10.358;2023-05-20T06:36:16;19.58;;;12.05;;
74523;SDS011;63074;44.696;10.358;2023-05-20T06:38:43;17.85;;;11.73;;
74523;SDS011;63074;44.696;10.358;2023-05-20T06:41:09;19.02;;;11.50;;
74523;SDS011;63074;44.696;10.358;2023-05-20T06:43:35;18.55;;;10.57;;
74523;SDS011;63074;44.696;10.358;2023-05-20T06:46:02;20.15;;;10.43;;
74523;SDS011;63074;44.696;10.358;2023-05-20T06:48:28;18.35;;;11.73;;
74523;SDS011;63074;44.696;10.358;2023-05-20T06:50:54;19.10;;;11.30;;
74523;SDS011;63074;44.696;10.358;2023-05-20T06:53:21;17.08;;;10.45;;
74523;SDS011;63074;44.696;10.358;2023-05-20T06:55:49;17.88;;;10.65;;
74523;SDS011;63074;44.696;10.358;2023-05-20T06:58:17;17.35;;;10.25;;
74523;SDS011;63074;44.696;10.358;2023-05-20T07:00:43;20.33;;;12.27;;
74523;SDS011;63074;44.696;10.358;2023-05-20T07:03:09;18.20;;;11.77;;
74523;SDS011;63074;44.696;10.358;2023-05-20T07:05:35;20.17;;;11.75;;
74523;SDS011;63074;44.696;10.358;2023-05-20T07:08:01;19.55;;;12.43;;
74523;SDS011;63074;44.696;10.358;2023-05-20T07:10:28;20.13;;;11.40;;
74523;SDS011;63074;44.696;10.358;2023-05-20T07:12:55;19.35;;;11.55;;
74523;SDS011;63074;44.696;10.358;2023-05-20T07:15:24;18.50;;;10.93;;
74523;SDS011;63074;44.696;10.358;2023-05-20T07:17:50;19.73;;;11.38;;
74523;SDS011;63074;44.696;10.358;2023-05-20T07:20:16;18.13;;;10.68;;
74523;SDS011;63074;44.696;10.358;2023-05-20T07:22:42;18.65;;;10.68;;
74523;SDS011;63074;44.696;10.358;2023-05-20T07:25:09;19.70;;;10.73;;
74523;SDS011;63074;44.696;10.358;2023-05-20T07:27:35;19.05;;;11.23;;
74523;SDS011;63074;44.696;10.358;2023-05-20T07:30:02;19.77;;;11.95;;
74523;SDS011;63074;44.696;10.358;2023-05-20T07:32:29;18.33;;;11.05;;
74523;SDS011;63074;44.696;10.358;2023-05-20T07:34:56;18.00;;;10.88;;
74523;SDS011;63074;44.696;10.358;2023-05-20T07:37:22;21.92;;;11.57;;
74523;SDS011;63074;44.696;10.358;2023-05-20T07:39:49;18.45;;;10.68;;
74523;SDS011;63074;44.696;10.358;2023-05-20T07:42:15;19.58;;;11.13;;
74523;SDS011;63074;44.696;10.358;2023-05-20T07:44:41;17.88;;;10.88;;
74523;SDS011;63074;44.696;10.358;2023-05-20T07:47:08;19.52;;;10.80;;
74523;SDS011;63074;44.696;10.358;2023-05-20T07:49:34;18.27;;;10.15;;
74523;SDS011;63074;44.696;10.358;2023-05-20T07:52:01;19.50;;;10.55;;
74523;SDS011;63074;44.696;10.358;2023-05-20T07:54:27;21.02;;;11.50;;
74523;SDS011;63074;44.696;10.358;2023-05-20T07:56:54;17.08;;;9.88;;
74523;SDS011;63074;44.696;10.358;2023-05-20T07:59:20;17.38;;;9.35;;
74523;SDS011;63074;44.696;10.358;2023-05-20T08:01:46;19.85;;;10.57;;
74523;SDS011;63074;44.696;10.358;2023-05-20T08:04:13;16.77;;;9.98;;
74523;SDS011;63074;44.696;10.358;2023-05-20T08:06:39;16.50;;;10.75;;
74523;SDS011;63074;44.696;10.358;2023-05-20T08:09:06;19.98;;;11.18;;
74523;SDS011;63074;44.696;10.358;2023-05-20T08:11:32;17.63;;;9.57;;
74523;SDS011;63074;44.696;10.358;2023-05-20T08:13:58;18.50;;;10.85;;
74523;SDS011;63074;44.696;10.358;2023-05-20T08:16:24;19.98;;;11.93;;
74523;SDS011;63074;44.696;10.358;2023-05-20T08:18:51;18.20;;;10.55;;
74523;SDS011;63074;44.696;10.358;2023-05-20T08:21:17;18.17;;;10.23;;
74523;SDS011;63074;44.696;10.358;2023-05-20T08:23:43;19.60;;;11.65;;
74523;SDS011;63074;44.696;10.358;2023-05-20T08:26:09;20.23;;;11.05;;
74523;SDS011;63074;44.696;10.358;2023-05-20T08:28:35;18.00;;;11.15;;
74523;SDS011;63074;44.696;10.358;2023-05-20T08:31:02;18.98;;;10.85;;
74523;SDS011;63074;44.696;10.358;2023-05-20T08:33:28;15.82;;;9.95;;
74523;SDS011;63074;44.696;10.358;2023-05-20T08:35:54;18.88;;;12.50;;
74523;SDS011;63074;44.696;10.358;2023-05-20T08:38:21;17.50;;;10.85;;
74523;SDS011;63074;44.696;10.358;2023-05-20T08:40:50;19.80;;;11.43;;
74523;SDS011;63074;44.696;10.358;2023-05-20T08:43:21;18.98;;;11.90;;
74523;SDS011;63074;44.696;10.358;2023-05-20T08:45:48;22.17;;;11.73;;
74523;SDS011;63074;44.696;10.358;2023-05-20T08:48:18;19.83;;;11.65;;
74523;SDS011;63074;44.696;10.358;2023-05-20T08:50:50;17.38;;;9.80;;
74523;SDS011;63074;44.696;10.358;2023-05-20T08:53:19;20.30;;;12.07;;
74523;SDS011;63074;44.696;10.358;2023-05-20T08:55:58;20.67;;;10.57;;
74523;SDS011;63074;44.696;10.358;2023-05-20T08:58:27;17.67;;;9.90;;
74523;SDS011;63074;44.696;10.358;2023-05-20T09:00:54;16.83;;;9.98;;
74523;SDS011;63074;44.696;10.358;2023-05-20T09:03:20;17.50;;;9.75;;
74523;SDS011;63074;44.696;10.358;2023-05-20T09:05:48;17.80;;;10.13;;
74523;SDS011;63074;44.696;10.358;2023-05-20T09:08:14;17.55;;;9.88;;
74523;SDS011;63074;44.696;10.358;2023-05-20T09:10:40;17.80;;;9.63;;
74523;SDS011;63074;44.696;10.358;2023-05-20T09:13:07;19.73;;;9.93;;
74523;SDS011;63074;44.696;10.358;2023-05-20T09:15:35;15.82;;;9.98;;
74523;SDS011;63074;44.696;10.358;2023-05-20T09:18:02;18.45;;;10.00;;
74523;SDS011;63074;44.696;10.358;2023-05-20T09:20:33;18.52;;;9.88;;
74523;SDS011;63074;44.696;10.358;2023-05-20T09:23:05;18.25;;;10.88;;
74523;SDS011;63074;44.696;10.358;2023-05-20T09:25:34;16.13;;;9.88;;
74523;SDS011;63074;44.696;10.358;2023-05-20T09:28:03;17.42;;;9.57;;
74523;SDS011;63074;44.696;10.358;2023-05-20T09:32:58;18.00;;;9.98;;
74523;SDS011;63074;44.696;10.358;2023-05-20T09:35:25;17.30;;;9.35;;
74523;SDS011;63074;44.696;10.358;2023-05-20T09:37:53;17.85;;;9.23;;
74523;SDS011;63074;44.696;10.358;2023-05-20T09:40:23;17.75;;;9.68;;
74523;SDS011;63074;44.696;10.358;2023-05-20T09:42:53;17.35;;;8.75;;
74523;SDS011;63074;44.696;10.358;2023-05-20T09:45:19;16.02;;;8.82;;
74523;SDS011;63074;44.696;10.358;2023-05-20T09:47:47;18.13;;;9.73;;
74523;SDS011;63074;44.696;10.358;2023-05-20T09:50:16;17.13;;;9.88;;
74523;SDS011;63074;44.696;10.358;2023-05-20T09:52:47;18.33;;;10.30;;
74523;SDS011;63074;44.696;10.358;2023-05-20T09:55:18;17.95;;;9.77;;
74523;SDS011;63074;44.696;10.358;2023-05-20T09:57:45;20.88;;;10.73;;
74523;SDS011;63074;44.696;10.358;2023-05-20T10:00:12;18.45;;;10.20;;
74523;SDS011;63074;44.696;10.358;2023-05-20T10:02:46;17.17;;;9.18;;
74523;SDS011;63074;44.696;10.358;2023-05-20T10:18:35;19.90;;;10.75;;
74523;SDS011;63074;44.696;10.358;2023-05-20T10:21:17;22.05;;;12.57;;
74523;SDS011;63074;44.696;10.358;2023-05-20T10:23:46;24.15;;;11.88;;
74523;SDS011;63074;44.696;10.358;2023-05-20T10:26:12;20.75;;;11.52;;
74523;SDS011;63074;44.696;10.358;2023-05-20T10:28:39;22.40;;;12.00;;
74523;SDS011;63074;44.696;10.358;2023-05-20T10:31:21;22.98;;;11.88;;
74523;SDS011;63074;44.696;10.358;2023-05-20T10:33:48;24.75;;;12.82;;
74523;SDS011;63074;44.696;10.358;2023-05-20T10:36:21;22.45;;;11.75;;
74523;SDS011;63074;44.696;10.358;2023-05-20T10:38:50;26.60;;;13.20;;
74523;SDS011;63074;44.696;10.358;2023-05-20T10:41:22;22.52;;;11.57;;
74523;SDS011;63074;44.696;10.358;2023-05-20T10:44:04;22.45;;;13.38;;
74523;SDS011;63074;44.696;10.358;2023-05-20T10:46:31;21.50;;;11.85;;
74523;SDS011;63074;44.696;10.358;2023-05-20T10:48:58;22.88;;;13.13;;
74523;SDS011;63074;44.696;10.358;2023-05-20T10:51:27;24.98;;;12.48;;
74523;SDS011;63074;44.696;10.358;2023-05-20T10:53:55;22.05;;;12.45;;
74523;SDS011;63074;44.696;10.358;2023-05-20T10:56:24;25.75;;;13.68;;
74523;SDS011;63074;44.696;10.358;2023-05-20T10:58:52;22.48;;;13.15;;
74523;SDS011;63074;44.696;10.358;2023-05-20T11:01:23;22.73;;;11.98;;
74523;SDS011;63074;44.696;10.358;2023-05-20T11:03:50;26.85;;;13.70;;
74523;SDS011;63074;44.696;10.358;2023-05-20T11:06:24;24.73;;;13.10;;
74523;SDS011;63074;44.696;10.358;2023-05-20T11:08:52;24.38;;;12.32;;
74523;SDS011;63074;44.696;10.358;2023-05-20T11:11:19;25.38;;;12.93;;
74523;SDS011;63074;44.696;10.358;2023-05-20T11:13:50;23.30;;;13.07;;
74523;SDS011;63074;44.696;10.358;2023-05-20T11:16:17;22.33;;;12.65;;
74523;SDS011;63074;44.696;10.358;2023-05-20T11:18:46;21.90;;;12.77;;
74523;SDS011;63074;44.696;10.358;2023-05-20T11:21:14;22.27;;;13.60;;
74523;SDS011;63074;44.696;10.358;2023-05-20T11:23:40;24.85;;;14.07;;
74523;SDS011;63074;44.696;10.358;2023-05-20T11:26:06;28.58;;;14.57;;
74523;SDS011;63074;44.696;10.358;2023-05-20T11:28:34;24.33;;;13.43;;
74523;SDS011;63074;44.696;10.358;2023-05-20T11:31:00;25.58;;;13.52;;
74523;SDS011;63074;44.696;10.358;2023-05-20T11:33:28;25.67;;;12.77;;
74523;SDS011;63074;44.696;10.358;2023-05-20T11:35:56;24.35;;;13.52;;
74523;SDS011;63074;44.696;10.358;2023-05-20T11:38:23;23.98;;;12.73;;
74523;SDS011;63074;44.696;10.358;2023-05-20T11:40:52;24.42;;;13.85;;
74523;SDS011;63074;44.696;10.358;2023-05-20T11:43:20;23.63;;;14.65;;
74523;SDS011;63074;44.696;10.358;2023-05-20T11:45:51;22.25;;;12.45;;
74523;SDS011;63074;44.696;10.358;2023-05-20T11:48:23;24.70;;;13.48;;
74523;SDS011;63074;44.696;10.358;2023-05-20T11:50:50;24.20;;;13.20;;
74523;SDS011;63074;44.696;10.358;2023-05-20T11:53:18;22.35;;;12.63;;
74523;SDS011;63074;44.696;10.358;2023-05-20T11:55:56;25.35;;;12.23;;
74523;SDS011;63074;44.696;10.358;2023-05-20T11:58:24;24.38;;;13.13;;
74523;SDS011;63074;44.696;10.358;2023-05-20T12:00:54;25.38;;;13.55;;
74523;SDS011;63074;44.696;10.358;2023-05-20T12:03:21;25.90;;;13.52;;
74523;SDS011;63074;44.696;10.358;2023-05-20T12:05:47;24.48;;;13.35;;
74523;SDS011;63074;44.696;10.358;2023-05-20T12:08:15;27.48;;;13.15;;
74523;SDS011;63074;44.696;10.358;2023-05-20T12:10:41;26.38;;;13.30;;
74523;SDS011;63074;44.696;10.358;2023-05-20T12:13:09;25.83;;;13.20;;
74523;SDS011;63074;44.696;10.358;2023-05-20T12:15:37;25.55;;;12.55;;
74523;SDS011;63074;44.696;10.358;2023-05-20T12:18:03;25.42;;;12.82;;
74523;SDS011;63074;44.696;10.358;2023-05-20T12:20:30;27.52;;;14.90;;
74523;SDS011;63074;44.696;10.358;2023-05-20T12:22:58;25.67;;;14.77;;
74523;SDS011;63074;44.696;10.358;2023-05-20T12:25:24;27.38;;;14.13;;
74523;SDS011;63074;44.696;10.358;2023-05-20T12:27:51;26.17;;;12.73;;
74523;SDS011;63074;44.696;10.358;2023-05-20T12:30:18;25.38;;;14.15;;
74523;SDS011;63074;44.696;10.358;2023-05-20T12:32:45;24.80;;;13.45;;
74523;SDS011;63074;44.696;10.358;2023-05-20T12:35:14;25.50;;;14.70;;
74523;SDS011;63074;44.696;10.358;2023-05-20T12:37:41;26.70;;;14.15;;
74523;SDS011;63074;44.696;10.358;2023-05-20T12:40:08;25.70;;;12.55;;
74523;SDS011;63074;44.696;10.358;2023-05-20T12:42:37;25.77;;;13.80;;
74523;SDS011;63074;44.696;10.358;2023-05-20T12:45:04;25.13;;;12.98;;
74523;SDS011;63074;44.696;10.358;2023-05-20T12:47:31;25.40;;;14.45;;
74523;SDS011;63074;44.696;10.358;2023-05-20T12:49:59;25.40;;;13.40;;
74523;SDS011;63074;44.696;10.358;2023-05-20T12:52:25;28.45;;;14.48;;
74523;SDS011;63074;44.696;10.358;2023-05-20T12:54:55;27.58;;;14.02;;
74523;SDS011;63074;44.696;10.358;2023-05-20T12:57:24;30.63;;;15.70;;
74523;SDS011;63074;44.696;10.358;2023-05-20T12:59:51;30.33;;;15.55;;
74523;SDS011;63074;44.696;10.358;2023-05-20T13:02:17;29.42;;;13.95;;
74523;SDS011;63074;44.696;10.358;2023-05-20T13:04:44;28.30;;;14.18;;
74523;SDS011;63074;44.696;10.358;2023-05-20T13:07:10;28.85;;;14.07;;
74523;SDS011;63074;44.696;10.358;2023-05-20T13:09:37;29.63;;;14.82;;
74523;SDS011;63074;44.696;10.358;2023-05-20T13:12:03;31.52;;;14.75;;
74523;SDS011;63074;44.696;10.358;2023-05-20T13:14:29;30.08;;;15.30;;
74523;SDS011;63074;44.696;10.358;2023-05-20T13:16:56;29.45;;;14.65;;
74523;SDS011;63074;44.696;10.358;2023-05-20T13:19:22;28.48;;;15.43;;
74523;SDS011;63074;44.696;10.358;2023-05-20T13:21:49;29.45;;;15.63;;
74523;SDS011;63074;44.696;10.358;2023-05-20T13:24:18;28.55;;;15.35;;
74523;SDS011;63074;44.696;10.358;2023-05-20T13:26:44;33.38;;;16.85;;
74523;SDS011;63074;44.696;10.358;2023-05-20T13:29:11;29.73;;;15.60;;
74523;SDS011;63074;44.696;10.358;2023-05-20T13:31:37;32.22;;;16.38;;
74523;SDS011;63074;44.696;10.358;2023-05-20T13:34:03;38.42;;;18.73;;
74523;SDS011;63074;44.696;10.358;2023-05-20T13:36:30;36.05;;;17.52;;
74523;SDS011;63074;44.696;10.358;2023-05-20T13:38:56;38.83;;;17.52;;
74523;SDS011;63074;44.696;10.358;2023-05-20T13:41:23;36.55;;;18.88;;
74523;SDS011;63074;44.696;10.358;2023-05-20T13:43:50;34.42;;;16.83;;
74523;SDS011;63074;44.696;10.358;2023-05-20T13:46:17;36.17;;;18.00;;
74523;SDS011;63074;44.696;10.358;2023-05-20T13:48:43;38.95;;;19.50;;
74523;SDS011;63074;44.696;10.358;2023-05-20T13:51:10;33.05;;;17.15;;
74523;SDS011;63074;44.696;10.358;2023-05-20T13:53:37;33.28;;;17.92;;
74523;SDS011;63074;44.696;10.358;2023-05-20T13:56:03;35.20;;;18.63;;
74523;SDS011;63074;44.696;10.358;2023-05-20T13:58:29;33.17;;;17.13;;
74523;SDS011;63074;44.696;10.358;2023-05-20T14:00:56;34.90;;;17.15;;
74523;SDS011;63074;44.696;10.358;2023-05-20T14:03:23;33.55;;;16.73;;
74523;SDS011;63074;44.696;10.358;2023-05-20T14:05:49;34.75;;;17.60;;
74523;SDS011;63074;44.696;10.358;2023-05-20T14:08:15;34.47;;;17.92;;
74523;SDS011;63074;44.696;10.358;2023-05-20T14:10:41;28.65;;;16.10;;
74523;SDS011;63074;44.696;10.358;2023-05-20T14:13:08;36.00;;;17.75;;
74523;SDS011;63074;44.696;10.358;2023-05-20T14:15:34;32.42;;;17.30;;
74523;SDS011;63074;44.696;10.358;2023-05-20T14:18:01;36.15;;;17.45;;
74523;SDS011;63074;44.696;10.358;2023-05-20T14:20:27;36.17;;;16.60;;
74523;SDS011;63074;44.696;10.358;2023-05-20T14:22:53;30.75;;;16.10;;
74523;SDS011;63074;44.696;10.358;2023-05-20T14:25:20;29.17;;;15.60;;
74523;SDS011;63074;44.696;10.358;2023-05-20T14:27:46;37.17;;;16.65;;
74523;SDS011;63074;44.696;10.358;2023-05-20T14:30:13;33.83;;;17.92;;
74523;SDS011;63074;44.696;10.358;2023-05-20T14:32:39;35.25;;;17.25;;